Time;durP1;ratioP1;P1;durP2;ratioP2;P2;SDS_P1;SDS_P2;PMS_P1;PMS_P2;Temp;Humidity;BMP_temperature;BMP_pressure;BME280_temperature;BME280_humidity;BME280_pressure;Samples;Min_cycle;Max_cycle;Signal;HPM_P1;HPM_P2
2022/02/07 00:01:31;;;;;;;;;;;;;;;;;;5108074;28;20044;-79
2022/02/07 00:04:00;;;;;;;0.10;0.10;;;;;;;;;;5107783;28;19919;-79
2022/02/07 00:06:27;;;;;;;0.03;0.03;;;;;;;;;;5098001;28;20068;-78
2022/02/07 00:08:53;;;;;;;0.10;0.10;;;;;;;;;;5114706;28;20075;-77
2022/02/07 00:11:22;;;;;;;0.10;0.10;;;;;;;;;;5111495;28;20070;-77
2022/02/07 00:13:48;;;;;;;0.15;0.08;;;;;;;;;;5113349;28;20126;-78
2022/02/07 00:16:15;;;;;;;0.20;0.20;;;;;;;;;;5112072;28;20094;-76
2022/02/07 00:18:42;;;;;;;0.10;0.10;;;;;;;;;;5110175;28;20063;-80
2022/02/07 00:21:08;;;;;;;0.08;0.08;;;;;;;;;;5105887;28;20048;-78
2022/02/07 00:23:42;;;;;;;0.52;0.20;;;;;;;;;;5110681;28;20048;-76
2022/02/07 00:26:10;;;;;;;0.30;0.20;;;;;;;;;;5110693;28;20105;-76
2022/02/07 00:28:38;;;;;;;0.20;0.20;;;;;;;;;;5113161;28;20134;-77
2022/02/07 00:31:05;;;;;;;0.10;0.10;;;;;;;;;;5111339;28;20100;-76
2022/02/07 00:33:33;;;;;;;0.45;0.20;;;;;;;;;;5109228;28;20071;-79
2022/02/07 00:36:01;;;;;;;0.20;0.20;;;;;;;;;;5106188;28;20076;-79
2022/02/07 00:38:27;;;;;;;1.40;0.20;;;;;;;;;;5112062;28;20093;-79
2022/02/07 00:41:02;;;;;;;0.63;0.20;;;;;;;;;;5112172;28;20047;-80
2022/02/07 00:43:37;;;;;;;0.38;0.20;;;;;;;;;;5106967;28;20043;-80
2022/02/07 00:46:08;;;;;;;0.43;0.10;;;;;;;;;;5109508;28;20100;-77
2022/02/07 00:48:35;;;;;;;0.30;0.20;;;;;;;;;;5107097;28;20043;-79
2022/02/07 00:51:02;;;;;;;0.10;0.10;;;;;;;;;;5112398;28;20075;-77
2022/02/07 00:53:31;;;;;;;0.32;0.20;;;;;;;;;;5101465;28;20036;-79
2022/02/07 00:55:58;;;;;;;1.75;0.20;;;;;;;;;;5112027;28;20122;-77
2022/02/07 00:58:24;;;;;;;0.10;0.10;;;;;;;;;;5104935;28;20036;-78
2022/02/07 01:00:52;;;;;;;0.20;0.20;;;;;;;;;;5104700;28;20706;-78
2022/02/07 01:03:20;;;;;;;0.20;0.20;;;;;;;;;;5112015;28;20097;-80
2022/02/07 01:05:49;;;;;;;0.65;0.10;;;;;;;;;;5111484;28;20063;-78
2022/02/07 01:08:18;;;;;;;0.10;0.10;;;;;;;;;;5106814;28;20047;-78
2022/02/07 01:10:53;;;;;;;0.63;0.10;;;;;;;;;;5104556;28;20071;-78
2022/02/07 01:13:31;;;;;;;0.10;0.10;;;;;;;;;;5109768;28;20430;-77
2022/02/07 01:16:07;;;;;;;0.10;0.10;;;;;;;;;;5110629;28;20496;-77
2022/02/07 01:18:53;;;;;;;0.22;0.22;;;;;;;;;;5106070;28;21399;-78
2022/02/07 01:49:00;;;;;;;0.55;0.20;;;;;;;;;;5111695;28;20054;-77
2022/02/07 01:51:59;;;;;;;0.43;0.20;;;;;;;;;;5114965;28;20155;-78
2022/02/07 01:54:34;;;;;;;0.20;0.20;;;;;;;;;;5114443;28;20043;-79
2022/02/07 01:57:04;;;;;;;1.25;0.20;;;;;;;;;;5109941;28;20061;-78
2022/02/07 01:59:30;;;;;;;0.47;0.20;;;;;;;;;;5112799;28;20040;-80
2022/02/07 02:01:57;;;;;;;1.27;0.20;;;;;;;;;;5113291;28;20075;-78
2022/02/07 02:04:23;;;;;;;0.10;0.10;;;;;;;;;;5113234;28;20071;-81
2022/02/07 02:06:52;;;;;;;0.20;0.20;;;;;;;;;;5112527;28;20113;-79
2022/02/07 02:09:18;;;;;;;0.30;0.10;;;;;;;;;;5113252;28;20698;-78
2022/02/07 02:11:45;;;;;;;0.38;0.20;;;;;;;;;;5116975;28;20071;-79
2022/02/07 02:14:26;;;;;;;0.10;0.10;;;;;;;;;;5109137;28;20039;-79
2022/02/07 02:17:11;;;;;;;0.15;0.13;;;;;;;;;;5114400;28;20142;-77
2022/02/07 10:49:04;;;;;;;4.28;1.52;;;;;;;;;;4962898;28;20496;-78
2022/02/07 10:51:32;;;;;;;5.40;2.03;;;;;;;;;;4963547;28;20055;-79
2022/02/07 10:54:00;;;;;;;4.65;2.00;;;;;;;;;;4955857;28;20502;-78
2022/02/07 10:56:35;;;;;;;5.25;1.23;;;;;;;;;;4961054;28;20137;-77
2022/02/07 10:59:06;;;;;;;5.88;1.10;;;;;;;;;;4962430;28;20133;-78
2022/02/07 11:01:48;;;;;;;4.55;1.70;;;;;;;;;;4962445;28;20050;-78
2022/02/07 11:04:30;;;;;;;3.47;1.40;;;;;;;;;;4962901;28;20043;-78
2022/02/07 11:07:00;;;;;;;5.28;1.88;;;;;;;;;;4962327;28;20514;-77
2022/02/07 11:09:34;;;;;;;7.85;1.67;;;;;;;;;;4961548;28;20058;-78
2022/02/07 11:12:17;;;;;;;5.45;2.05;;;;;;;;;;4960228;28;20051;-78
2022/02/07 11:15:03;;;;;;;3.67;1.30;;;;;;;;;;4960985;28;20098;-78
2022/02/07 11:17:55;;;;;;;5.45;1.73;;;;;;;;;;4959884;28;20670;-78
2022/02/07 11:20:38;;;;;;;9.40;2.35;;;;;;;;;;4962179;28;20419;-78
2022/02/07 11:23:18;;;;;;;8.43;2.45;;;;;;;;;;4962390;28;20078;-79
2022/02/07 11:25:51;;;;;;;5.03;1.60;;;;;;;;;;4959860;28;20051;-79
2022/02/07 11:28:22;;;;;;;4.13;1.27;;;;;;;;;;4961199;28;20771;-78
2022/02/07 11:30:50;;;;;;;4.65;1.58;;;;;;;;;;4960454;28;20047;-79
2022/02/07 11:33:35;;;;;;;6.57;2.22;;;;;;;;;;4964070;28;20142;-78
2022/02/07 11:36:04;;;;;;;6.63;1.83;;;;;;;;;;4962895;28;20082;-78
2022/02/07 11:38:31;;;;;;;5.70;2.22;;;;;;;;;;4959030;28;20775;-78
2022/02/07 11:41:03;;;;;;;6.15;1.30;;;;;;;;;;4962858;28;20142;-78
2022/02/07 11:43:31;;;;;;;2.85;1.00;;;;;;;;;;4959919;28;20138;-78
2022/02/07 11:45:59;;;;;;;9.75;2.08;;;;;;;;;;4962403;28;20157;-78
2022/02/07 11:48:35;;;;;;;6.63;1.77;;;;;;;;;;4946971;29;20812;-77
2022/02/07 11:51:06;;;;;;;5.28;1.50;;;;;;;;;;4947276;29;20142;-79
2022/02/07 11:53:39;;;;;;;8.75;2.72;;;;;;;;;;4946671;29;20078;-78
2022/02/07 11:56:08;;;;;;;3.05;1.58;;;;;;;;;;4946423;29;20102;-77
2022/02/07 11:58:50;;;;;;;4.32;1.42;;;;;;;;;;4947206;28;20122;-77
2022/02/07 12:01:24;;;;;;;2.83;1.15;;;;;;;;;;4945579;29;20071;-78
2022/02/07 12:03:53;;;;;;;8.70;2.60;;;;;;;;;;4946594;29;20719;-79
2022/02/07 12:06:25;;;;;;;7.07;1.77;;;;;;;;;;4947147;28;20509;-78
2022/02/07 12:08:53;;;;;;;3.58;1.50;;;;;;;;;;4950550;28;20058;-79
2022/02/07 12:11:20;;;;;;;4.65;1.52;;;;;;;;;;4949225;28;20139;-78
2022/02/07 12:13:46;;;;;;;6.22;1.95;;;;;;;;;;4947200;28;20071;-76
2022/02/07 12:16:17;;;;;;;3.28;1.02;;;;;;;;;;4945192;29;20075;-77
2022/02/07 12:18:47;;;;;;;8.82;1.60;;;;;;;;;;4946805;28;20044;-78
2022/02/07 12:21:17;;;;;;;4.38;1.42;;;;;;;;;;4945320;28;20131;-77
2022/02/07 12:23:45;;;;;;;4.35;1.65;;;;;;;;;;4946937;28;20063;-80
2022/02/07 12:26:16;;;;;;;4.60;1.30;;;;;;;;;;4948110;28;20087;-80
2022/02/07 12:28:45;;;;;;;8.40;1.70;;;;;;;;;;4946756;28;20044;-79
2022/02/07 12:31:18;;;;;;;5.60;1.75;;;;;;;;;;4949360;28;20074;-79
2022/02/07 12:33:56;;;;;;;4.95;1.45;;;;;;;;;;4946532;29;20516;-79
2022/02/07 12:36:24;;;;;;;3.85;1.23;;;;;;;;;;4946450;29;20106;-78
2022/02/07 12:38:53;;;;;;;4.40;1.38;;;;;;;;;;4947968;29;20047;-82
2022/02/07 12:41:22;;;;;;;4.85;1.25;;;;;;;;;;4949614;28;20110;-79
2022/02/07 12:43:51;;;;;;;4.97;1.70;;;;;;;;;;4947114;29;20054;-78
2022/02/07 12:46:20;;;;;;;4.75;1.48;;;;;;;;;;4946817;29;20101;-78
2022/02/07 12:48:55;;;;;;;5.82;1.60;;;;;;;;;;4945165;28;20055;-79
2022/02/07 12:51:23;;;;;;;5.40;1.45;;;;;;;;;;4945091;28;20489;-80
2022/02/07 12:53:53;;;;;;;7.57;2.13;;;;;;;;;;4947348;29;20134;-79
2022/02/07 12:56:21;;;;;;;6.32;1.42;;;;;;;;;;4945334;28;20103;-79
2022/02/07 12:58:48;;;;;;;3.78;1.33;;;;;;;;;;4947785;29;21339;-78
2022/02/07 13:01:26;;;;;;;5.72;1.80;;;;;;;;;;4948485;28;20059;-79
2022/02/07 13:03:55;;;;;;;5.55;1.67;;;;;;;;;;4945016;28;20082;-79
2022/02/07 13:06:30;;;;;;;5.22;2.10;;;;;;;;;;4945344;28;20079;-78
2022/02/07 13:09:02;;;;;;;5.50;1.63;;;;;;;;;;4946396;29;20130;-79
2022/02/07 13:11:32;;;;;;;4.07;1.85;;;;;;;;;;4940592;29;20075;-78
2022/02/07 13:13:59;;;;;;;10.63;2.25;;;;;;;;;;4940473;29;20131;-80
2022/02/07 13:16:30;;;;;;;8.27;2.40;;;;;;;;;;4938233;28;20476;-78
2022/02/07 13:19:08;;;;;;;6.60;2.70;;;;;;;;;;4946220;29;20046;-83
2022/02/07 13:21:39;;;;;;;5.45;1.83;;;;;;;;;;4944460;29;20059;-79
2022/02/07 13:24:11;;;;;;;7.90;2.08;;;;;;;;;;4948056;29;20042;-82
2022/02/07 13:26:38;;;;;;;6.82;1.98;;;;;;;;;;4944608;29;20134;-79
2022/02/07 13:29:05;;;;;;;5.22;1.92;;;;;;;;;;4946460;28;20071;-79
2022/02/07 13:31:32;;;;;;;5.93;1.67;;;;;;;;;;4943400;28;20709;-79
2022/02/07 13:34:00;;;;;;;8.85;2.17;;;;;;;;;;4943563;28;20440;-78
2022/02/07 13:36:39;;;;;;;5.85;2.38;;;;;;;;;;4942724;28;20603;-78
2022/02/07 13:39:07;;;;;;;6.40;2.35;;;;;;;;;;4946240;28;20086;-75
2022/02/07 13:41:35;;;;;;;12.20;3.90;;;;;;;;;;4944917;29;20036;-79
2022/02/07 13:44:02;;;;;;;8.18;2.33;;;;;;;;;;4944460;29;20077;-76
2022/02/07 13:46:30;;;;;;;9.88;3.25;;;;;;;;;;4944415;29;20077;-81
2022/02/07 13:48:58;;;;;;;8.40;3.33;;;;;;;;;;4942436;29;20127;-79
2022/02/07 13:51:27;;;;;;;11.25;2.80;;;;;;;;;;4943366;29;20083;-76
2022/02/07 13:53:53;;;;;;;9.60;2.60;;;;;;;;;;4940002;29;20139;-77
2022/02/07 13:56:28;;;;;;;7.95;2.83;;;;;;;;;;4943225;29;20483;-78
2022/02/07 13:58:56;;;;;;;9.95;2.63;;;;;;;;;;4942996;28;20455;-78
2022/02/07 14:01:26;;;;;;;9.90;2.20;;;;;;;;;;4948657;28;20130;-78
2022/02/07 14:03:57;;;;;;;8.32;1.90;;;;;;;;;;4944681;28;20059;-79
2022/02/07 14:06:26;;;;;;;7.55;1.95;;;;;;;;;;4946360;29;20054;-79
2022/02/07 14:08:56;;;;;;;7.28;1.70;;;;;;;;;;4944522;29;20039;-81
2022/02/07 14:11:28;;;;;;;5.15;1.83;;;;;;;;;;4945099;29;20135;-79
2022/02/07 14:13:58;;;;;;;7.25;1.83;;;;;;;;;;4945023;28;20051;-77
2022/02/07 14:16:26;;;;;;;5.03;1.95;;;;;;;;;;4941690;29;20050;-77
2022/02/07 14:18:54;;;;;;;5.13;1.70;;;;;;;;;;4945423;29;20047;-81
2022/02/07 14:21:22;;;;;;;5.47;1.50;;;;;;;;;;4944652;29;20054;-79
2022/02/07 14:23:50;;;;;;;7.95;1.58;;;;;;;;;;4940615;29;20098;-79
2022/02/07 14:26:20;;;;;;;5.50;1.27;;;;;;;;;;4940791;29;20190;-77
2022/02/07 14:28:48;;;;;;;7.10;2.15;;;;;;;;;;4952567;29;20066;-75
2022/02/07 14:31:15;;;;;;;3.83;1.65;;;;;;;;;;4956063;29;20134;-76
2022/02/07 14:33:43;;;;;;;4.72;1.70;;;;;;;;;;4955847;29;20070;-76
2022/02/07 14:36:10;;;;;;;4.38;1.75;;;;;;;;;;4954935;29;20098;-76
2022/02/07 14:38:37;;;;;;;6.15;1.33;;;;;;;;;;4955931;29;20109;-76
2022/02/07 14:41:05;;;;;;;8.02;1.88;;;;;;;;;;4955979;29;20093;-76
2022/02/07 14:43:33;;;;;;;4.25;1.38;;;;;;;;;;4952879;28;20471;-75
2022/02/07 14:46:08;;;;;;;4.90;1.50;;;;;;;;;;4956152;29;20047;-75
2022/02/07 14:48:38;;;;;;;2.90;1.27;;;;;;;;;;4954252;29;20074;-77
2022/02/07 14:51:06;;;;;;;5.53;1.83;;;;;;;;;;4954773;28;20130;-82
2022/02/07 14:53:33;;;;;;;6.30;1.80;;;;;;;;;;4939653;29;20436;-79
2022/02/07 14:55:59;;;;;;;6.10;1.98;;;;;;;;;;4939357;29;20480;-77
2022/02/07 14:58:26;;;;;;;8.55;1.77;;;;;;;;;;4955900;29;20082;-78
2022/02/07 15:00:54;;;;;;;5.28;1.95;;;;;;;;;;4954240;29;20079;-77
2022/02/07 15:03:20;;;;;;;7.05;3.13;;;;;;;;;;4947465;29;20051;-76
2022/02/07 15:05:53;;;;;;;4.28;2.17;;;;;;;;;;4956091;29;20449;-81
2022/02/07 15:08:20;;;;;;;5.35;2.20;;;;;;;;;;4949988;29;20788;-78
2022/02/07 15:10:47;;;;;;;5.07;1.85;;;;;;;;;;4946344;29;20459;-75
2022/02/07 15:13:13;;;;;;;7.28;3.20;;;;;;;;;;4944911;29;20134;-77
2022/02/07 15:15:40;;;;;;;5.03;2.15;;;;;;;;;;4945684;28;20138;-78
2022/02/07 15:18:07;;;;;;;5.18;2.03;;;;;;;;;;4947584;29;20047;-79
2022/02/07 15:20:34;;;;;;;5.18;1.83;;;;;;;;;;4948910;29;20132;-78
2022/02/07 15:23:02;;;;;;;4.30;2.55;;;;;;;;;;4946208;29;20373;-76
2022/02/07 15:25:30;;;;;;;6.72;1.60;;;;;;;;;;4949354;29;20106;-77
2022/02/07 15:27:57;;;;;;;5.65;1.63;;;;;;;;;;4948632;28;20124;-76
2022/02/07 15:30:25;;;;;;;7.75;1.70;;;;;;;;;;4951459;29;20117;-77
2022/02/07 15:32:53;;;;;;;6.38;1.83;;;;;;;;;;4943078;29;20043;-79
2022/02/07 15:35:20;;;;;;;4.07;1.52;;;;;;;;;;4949251;29;20047;-78
2022/02/07 15:37:47;;;;;;;5.82;1.80;;;;;;;;;;4948165;29;20039;-77
2022/02/07 15:40:15;;;;;;;13.90;3.22;;;;;;;;;;4950939;29;20485;-77
2022/02/07 15:42:43;;;;;;;4.30;1.52;;;;;;;;;;4947802;29;20126;-78
2022/02/07 15:45:10;;;;;;;5.57;1.90;;;;;;;;;;4945194;29;20499;-77
2022/02/07 15:47:40;;;;;;;6.72;1.70;;;;;;;;;;4950701;29;20134;-79
2022/02/07 15:50:09;;;;;;;9.45;1.52;;;;;;;;;;4949323;29;20062;-78
2022/02/07 15:52:36;;;;;;;6.32;1.58;;;;;;;;;;4951235;28;20059;-75
2022/02/07 15:55:03;;;;;;;4.57;2.13;;;;;;;;;;4950118;29;20143;-79
2022/02/07 15:57:30;;;;;;;6.10;2.13;;;;;;;;;;4947529;29;20146;-76
2022/02/07 15:59:57;;;;;;;6.18;1.88;;;;;;;;;;4949468;29;20051;-76
2022/02/07 16:02:30;;;;;;;12.20;2.10;;;;;;;;;;4942594;29;21218;-76
2022/02/07 16:04:57;;;;;;;10.50;2.88;;;;;;;;;;4948627;29;20051;-77
2022/02/07 16:07:23;;;;;;;9.05;3.00;;;;;;;;;;4949970;29;20090;-76
2022/02/07 16:09:50;;;;;;;10.73;2.35;;;;;;;;;;4948598;29;20070;-78
2022/02/07 16:12:18;;;;;;;6.25;1.92;;;;;;;;;;4949160;29;20123;-77
2022/02/07 16:14:46;;;;;;;5.47;1.52;;;;;;;;;;4951074;29;20134;-76
2022/02/07 16:17:14;;;;;;;8.23;1.98;;;;;;;;;;4948701;29;20135;-81
2022/02/07 16:19:40;;;;;;;9.93;2.35;;;;;;;;;;4951415;28;20456;-77
2022/02/07 16:22:09;;;;;;;7.10;2.25;;;;;;;;;;4948352;29;20166;-79
2022/02/07 16:24:37;;;;;;;4.65;1.80;;;;;;;;;;4945977;28;20130;-77
2022/02/07 16:27:04;;;;;;;6.43;1.88;;;;;;;;;;4949337;29;20047;-76
2022/02/07 16:29:30;;;;;;;6.82;1.85;;;;;;;;;;4955276;29;20134;-76
2022/02/07 16:31:58;;;;;;;6.38;2.45;;;;;;;;;;4957815;29;20122;-76
2022/02/07 16:34:25;;;;;;;4.53;2.00;;;;;;;;;;4957077;29;20188;-77
2022/02/07 16:36:52;;;;;;;9.88;2.08;;;;;;;;;;4957804;29;20051;-77
2022/02/07 16:39:20;;;;;;;8.43;2.28;;;;;;;;;;4957266;29;20452;-77
2022/02/07 16:41:48;;;;;;;6.32;2.05;;;;;;;;;;4957427;29;20047;-76
2022/02/07 16:44:15;;;;;;;8.55;1.75;;;;;;;;;;4952929;28;20487;-77
2022/02/07 16:46:49;;;;;;;5.72;2.13;;;;;;;;;;4954904;28;20468;-77
2022/02/07 16:49:19;;;;;;;7.47;2.20;;;;;;;;;;4955492;29;20059;-77
2022/02/07 16:51:52;;;;;;;8.15;2.00;;;;;;;;;;4952932;29;20102;-79
2022/02/07 16:54:19;;;;;;;9.23;2.70;;;;;;;;;;4939610;29;20075;-76
2022/02/07 16:56:48;;;;;;;7.68;2.22;;;;;;;;;;4938459;29;20070;-77
2022/02/07 16:59:16;;;;;;;7.07;1.80;;;;;;;;;;4937638;29;20457;-76
2022/02/07 17:01:46;;;;;;;9.45;2.50;;;;;;;;;;4939857;29;20492;-79
2022/02/07 17:04:13;;;;;;;6.05;2.60;;;;;;;;;;4937620;29;20066;-78
2022/02/07 17:06:41;;;;;;;9.60;2.97;;;;;;;;;;4937738;29;20082;-77
2022/02/07 17:09:07;;;;;;;8.07;2.97;;;;;;;;;;4937670;29;20126;-77
2022/02/07 17:11:34;;;;;;;11.02;3.08;;;;;;;;;;4937524;29;20130;-77
2022/02/07 17:14:00;;;;;;;8.52;2.63;;;;;;;;;;4937715;29;20240;-77
2022/02/07 17:16:27;;;;;;;8.65;3.38;;;;;;;;;;4935984;29;20572;-77
2022/02/07 17:18:53;;;;;;;7.75;2.20;;;;;;;;;;4935041;29;20126;-77
2022/02/07 17:21:20;;;;;;;12.05;1.90;;;;;;;;;;4937917;29;20075;-77
2022/02/07 17:23:48;;;;;;;5.18;2.42;;;;;;;;;;4955556;29;20559;-76
2022/02/07 17:26:15;;;;;;;6.70;2.70;;;;;;;;;;4953048;29;20043;-77
2022/02/07 17:28:41;;;;;;;8.48;2.85;;;;;;;;;;4949153;29;20083;-76
2022/02/07 17:31:08;;;;;;;10.82;3.03;;;;;;;;;;4955214;29;20134;-77
2022/02/07 17:33:35;;;;;;;9.60;2.78;;;;;;;;;;4956607;29;20112;-76
2022/02/07 17:36:02;;;;;;;6.15;2.58;;;;;;;;;;4954681;29;20093;-77
2022/02/07 17:38:31;;;;;;;7.15;2.55;;;;;;;;;;4956487;29;20083;-77
2022/02/07 17:41:01;;;;;;;9.15;3.22;;;;;;;;;;4956500;29;20055;-77
2022/02/07 17:43:32;;;;;;;5.68;2.50;;;;;;;;;;4956282;29;20073;-76
2022/02/07 17:45:59;;;;;;;9.80;3.40;;;;;;;;;;4955345;29;20559;-76
2022/02/07 17:48:27;;;;;;;10.55;4.15;;;;;;;;;;4953806;29;20102;-77
2022/02/07 17:50:55;;;;;;;10.52;4.82;;;;;;;;;;4956549;29;20122;-76
2022/02/07 17:53:25;;;;;;;9.13;4.25;;;;;;;;;;4956528;29;20082;-77
2022/02/07 17:55:52;;;;;;;12.15;4.45;;;;;;;;;;4955200;29;20558;-77
2022/02/07 17:58:21;;;;;;;11.20;4.07;;;;;;;;;;4934460;28;20425;-81
2022/02/07 18:00:48;;;;;;;11.95;5.82;;;;;;;;;;4936690;29;20043;-77
2022/02/07 18:03:14;;;;;;;9.02;3.85;;;;;;;;;;4942046;28;20047;-77
2022/02/07 18:05:44;;;;;;;7.65;4.25;;;;;;;;;;4956295;29;20075;-77
2022/02/07 18:08:11;;;;;;;8.02;3.60;;;;;;;;;;4956290;29;20058;-77
2022/02/07 18:10:38;;;;;;;14.30;4.95;;;;;;;;;;4953793;28;20395;-77
2022/02/07 18:13:04;;;;;;;11.68;4.43;;;;;;;;;;4956224;29;20420;-77
2022/02/07 18:15:32;;;;;;;8.35;3.83;;;;;;;;;;4952041;28;20073;-76
2022/02/07 18:17:59;;;;;;;9.65;3.53;;;;;;;;;;4955599;28;20071;-77
2022/02/07 18:20:28;;;;;;;11.43;3.55;;;;;;;;;;4955800;29;20051;-77
2022/02/07 18:22:57;;;;;;;9.65;3.58;;;;;;;;;;4955124;29;20047;-76
2022/02/07 18:25:24;;;;;;;12.73;3.85;;;;;;;;;;4955077;29;20528;-77
2022/02/07 18:27:53;;;;;;;9.23;3.50;;;;;;;;;;4955682;28;20085;-76
2022/02/07 18:30:22;;;;;;;10.02;3.33;;;;;;;;;;4953846;28;20134;-78
2022/02/07 18:32:50;;;;;;;6.75;3.30;;;;;;;;;;4942182;28;20126;-78
2022/02/07 18:35:17;;;;;;;8.15;4.00;;;;;;;;;;4943205;28;20146;-80
2022/02/07 18:37:46;;;;;;;8.18;4.03;;;;;;;;;;4943067;28;20142;-81
2022/02/07 18:40:16;;;;;;;11.57;4.47;;;;;;;;;;4943077;28;20071;-78
2022/02/07 18:42:44;;;;;;;7.53;3.95;;;;;;;;;;4940025;28;20456;-79
2022/02/07 18:45:19;;;;;;;8.05;4.07;;;;;;;;;;4943250;28;20058;-77
2022/02/07 18:47:46;;;;;;;11.27;3.67;;;;;;;;;;4935233;29;20477;-77
2022/02/07 18:50:15;;;;;;;12.32;4.35;;;;;;;;;;4920884;29;20173;-76
2022/02/07 18:52:42;;;;;;;9.75;4.13;;;;;;;;;;4920912;29;20381;-76
2022/02/07 18:55:09;;;;;;;10.07;4.32;;;;;;;;;;4920875;29;20116;-76
2022/02/07 18:57:41;;;;;;;14.48;6.38;;;;;;;;;;4919965;29;20499;-77
2022/02/07 19:00:11;;;;;;;15.23;6.82;;;;;;;;;;4920002;29;20488;-76
2022/02/07 19:02:46;;;;;;;13.02;5.80;;;;;;;;;;4920037;29;20516;-76
2022/02/07 19:07:56;;;;;;;10.05;4.57;;;;;;;;;;4920226;29;20051;-77
2022/02/07 19:10:23;;;;;;;14.00;5.97;;;;;;;;;;4920858;29;20127;-77
2022/02/07 19:12:50;;;;;;;10.40;5.15;;;;;;;;;;4936444;29;20130;-77
2022/02/07 19:15:17;;;;;;;9.95;4.20;;;;;;;;;;4939686;29;20070;-77
2022/02/07 19:17:45;;;;;;;10.68;4.22;;;;;;;;;;4939387;29;20040;-77
2022/02/07 19:20:17;;;;;;;12.82;3.38;;;;;;;;;;4936879;29;20102;-77
2022/02/07 19:22:46;;;;;;;12.10;4.65;;;;;;;;;;4931442;29;20128;-77
2022/02/07 19:25:24;;;;;;;9.85;3.53;;;;;;;;;;4920228;29;20051;-76
2022/02/07 19:27:57;;;;;;;12.95;2.95;;;;;;;;;;4920552;29;20381;-77
2022/02/07 19:30:23;;;;;;;11.88;2.95;;;;;;;;;;4920237;29;20469;-77
2022/02/07 19:32:51;;;;;;;10.85;3.50;;;;;;;;;;4918130;29;20036;-77
2022/02/07 19:35:24;;;;;;;15.02;4.60;;;;;;;;;;4920146;29;20052;-77
2022/02/07 19:37:51;;;;;;;10.82;4.10;;;;;;;;;;4919604;29;20048;-76
2022/02/07 19:40:17;;;;;;;9.75;4.40;;;;;;;;;;4919960;29;20430;-77
2022/02/07 19:42:53;;;;;;;11.38;4.50;;;;;;;;;;4919753;29;20143;-76
2022/02/07 19:45:26;;;;;;;11.95;2.85;;;;;;;;;;4920256;29;20078;-76
2022/02/07 19:47:53;;;;;;;7.47;2.92;;;;;;;;;;4938738;29;20061;-76
2022/02/07 19:50:22;;;;;;;8.52;2.88;;;;;;;;;;4955466;28;20051;-76
2022/02/07 19:52:52;;;;;;;9.57;2.92;;;;;;;;;;4958853;29;20079;-77
2022/02/07 19:55:20;;;;;;;9.27;3.60;;;;;;;;;;4959473;29;20050;-77
2022/02/07 19:57:46;;;;;;;8.55;3.78;;;;;;;;;;4958988;29;20098;-76
2022/02/07 20:00:16;;;;;;;8.88;2.67;;;;;;;;;;4958118;29;20126;-77
2022/02/07 20:02:44;;;;;;;8.75;3.00;;;;;;;;;;4957387;29;20487;-77
2022/02/07 20:05:14;;;;;;;7.03;2.75;;;;;;;;;;4958798;29;20051;-77
2022/02/07 20:07:42;;;;;;;5.35;2.75;;;;;;;;;;4958781;29;20086;-77
2022/02/07 20:10:11;;;;;;;5.55;2.60;;;;;;;;;;4958764;29;20047;-77
2022/02/07 20:12:40;;;;;;;7.93;3.10;;;;;;;;;;4958699;29;20046;-77
2022/02/07 20:15:09;;;;;;;7.43;3.13;;;;;;;;;;4958147;29;20043;-77
2022/02/07 20:17:36;;;;;;;7.70;2.50;;;;;;;;;;4958445;29;20043;-76
2022/02/07 20:20:04;;;;;;;7.30;2.88;;;;;;;;;;4959202;29;20055;-76
2022/02/07 20:22:30;;;;;;;9.55;3.67;;;;;;;;;;4959605;29;20439;-77
2022/02/07 20:24:58;;;;;;;9.43;3.20;;;;;;;;;;4959270;29;20070;-77
2022/02/07 20:27:26;;;;;;;7.75;3.30;;;;;;;;;;4957940;29;20051;-77
2022/02/07 20:29:54;;;;;;;5.70;2.63;;;;;;;;;;4956773;29;20047;-77
2022/02/07 20:32:23;;;;;;;6.93;3.78;;;;;;;;;;4957441;29;20109;-76
2022/02/07 20:34:54;;;;;;;9.27;2.92;;;;;;;;;;4957089;29;20047;-76
2022/02/07 20:37:21;;;;;;;9.20;2.80;;;;;;;;;;4957304;29;20058;-76
2022/02/07 20:39:47;;;;;;;7.57;2.22;;;;;;;;;;4956522;29;20075;-76
2022/02/07 20:42:15;;;;;;;8.32;3.35;;;;;;;;;;4957343;29;20039;-76
2022/02/07 20:44:42;;;;;;;8.05;2.97;;;;;;;;;;4957190;29;20479;-76
2022/02/07 20:47:13;;;;;;;9.40;2.63;;;;;;;;;;4956635;29;20395;-76
2022/02/07 20:49:40;;;;;;;10.77;2.60;;;;;;;;;;4954065;28;20129;-77
2022/02/07 20:52:07;;;;;;;9.05;3.08;;;;;;;;;;4956378;29;20043;-76
2022/02/07 20:54:35;;;;;;;9.27;3.38;;;;;;;;;;4957009;29;20071;-76
2022/02/07 20:57:02;;;;;;;6.38;2.53;;;;;;;;;;4956951;29;20053;-76
2022/02/07 20:59:29;;;;;;;8.32;2.70;;;;;;;;;;4955911;29;20510;-76
2022/02/07 21:01:56;;;;;;;5.95;2.63;;;;;;;;;;4957108;29;20081;-77
2022/02/07 21:04:31;;;;;;;10.82;2.88;;;;;;;;;;4956793;29;20107;-77
2022/02/07 21:07:01;;;;;;;8.40;3.53;;;;;;;;;;4957127;29;20134;-77
2022/02/07 21:09:31;;;;;;;6.32;2.35;;;;;;;;;;4956148;29;20074;-76
2022/02/07 21:12:01;;;;;;;7.72;2.80;;;;;;;;;;4956885;29;20053;-76
2022/02/07 21:14:29;;;;;;;6.30;2.58;;;;;;;;;;4956992;29;20039;-76
2022/02/07 21:16:56;;;;;;;7.65;2.20;;;;;;;;;;4956706;29;20078;-77
2022/02/07 21:19:28;;;;;;;4.68;1.92;;;;;;;;;;4957353;29;20139;-77
2022/02/07 21:21:55;;;;;;;5.30;2.20;;;;;;;;;;4956973;29;20379;-77
2022/02/07 21:24:21;;;;;;;9.13;2.50;;;;;;;;;;4955955;29;20077;-76
2022/02/07 21:26:47;;;;;;;6.38;2.55;;;;;;;;;;4956663;29;20083;-76
2022/02/07 21:29:14;;;;;;;4.78;1.75;;;;;;;;;;4955807;29;20086;-77
2022/02/07 21:31:42;;;;;;;4.38;2.28;;;;;;;;;;4956448;29;20078;-76
2022/02/07 21:34:12;;;;;;;4.85;2.55;;;;;;;;;;4957363;29;20134;-77
2022/02/07 21:36:42;;;;;;;5.03;2.28;;;;;;;;;;4957451;29;20143;-77
2022/02/07 21:39:09;;;;;;;7.07;2.28;;;;;;;;;;4955873;29;20486;-77
2022/02/07 21:41:36;;;;;;;6.78;3.00;;;;;;;;;;4957891;29;20134;-77
2022/02/07 21:44:10;;;;;;;6.65;2.40;;;;;;;;;;4958259;29;20092;-79
2022/02/07 21:46:40;;;;;;;7.57;2.08;;;;;;;;;;4955227;29;20472;-75
2022/02/07 21:49:09;;;;;;;6.60;1.90;;;;;;;;;;4956075;29;20047;-78
2022/02/07 21:51:36;;;;;;;10.52;3.30;;;;;;;;;;4956660;29;20130;-76
2022/02/07 21:54:03;;;;;;;4.82;1.92;;;;;;;;;;4956500;29;20134;-76
2022/02/07 21:56:29;;;;;;;6.13;1.98;;;;;;;;;;4956071;29;20071;-77
2022/02/07 21:58:56;;;;;;;5.78;2.17;;;;;;;;;;4956725;29;20082;-76
2022/02/07 22:01:22;;;;;;;6.20;1.73;;;;;;;;;;4957430;28;20134;-76
2022/02/07 22:03:49;;;;;;;8.48;2.22;;;;;;;;;;4960227;29;20126;-77
2022/02/07 22:06:17;;;;;;;5.88;1.92;;;;;;;;;;4959039;29;20043;-76
2022/02/07 22:08:44;;;;;;;5.72;2.38;;;;;;;;;;4960105;29;20086;-76
2022/02/07 22:11:15;;;;;;;5.00;2.25;;;;;;;;;;4959969;29;20047;-76
2022/02/07 22:13:46;;;;;;;6.82;2.33;;;;;;;;;;4959656;29;20049;-77
2022/02/07 22:16:16;;;;;;;10.05;2.67;;;;;;;;;;4960527;29;20130;-77
2022/02/07 22:18:43;;;;;;;5.65;3.17;;;;;;;;;;4959977;29;20059;-77
2022/02/07 22:21:12;;;;;;;7.22;2.72;;;;;;;;;;4960061;29;20134;-77
2022/02/07 22:23:41;;;;;;;12.68;2.55;;;;;;;;;;4960167;29;20445;-77
2022/02/07 22:26:10;;;;;;;5.60;2.55;;;;;;;;;;4961465;29;20047;-78
2022/02/07 22:28:37;;;;;;;6.75;2.55;;;;;;;;;;4960458;29;20373;-77
2022/02/07 22:31:08;;;;;;;5.15;2.20;;;;;;;;;;4960586;29;20415;-77
2022/02/07 22:33:39;;;;;;;6.32;1.85;;;;;;;;;;4960640;29;20039;-78
2022/02/07 22:36:07;;;;;;;6.68;1.83;;;;;;;;;;4960671;29;20039;-78
2022/02/07 22:38:33;;;;;;;5.80;2.08;;;;;;;;;;4960239;29;20133;-77
2022/02/07 22:41:05;;;;;;;6.85;2.47;;;;;;;;;;4959919;29;20071;-77
2022/02/07 22:43:32;;;;;;;8.27;3.35;;;;;;;;;;4959944;29;20047;-77
2022/02/07 22:45:59;;;;;;;8.02;3.05;;;;;;;;;;4959072;29;20475;-77
2022/02/07 22:48:26;;;;;;;8.85;2.72;;;;;;;;;;4957551;29;20110;-77
2022/02/07 22:50:53;;;;;;;10.00;2.67;;;;;;;;;;4958481;29;20091;-77
2022/02/07 22:53:20;;;;;;;5.18;2.05;;;;;;;;;;4958823;29;20085;-77
2022/02/07 22:55:46;;;;;;;5.88;2.30;;;;;;;;;;4959476;29;20200;-77
2022/02/07 22:58:14;;;;;;;9.65;2.35;;;;;;;;;;4959722;29;20134;-77
2022/02/07 23:00:43;;;;;;;6.35;1.88;;;;;;;;;;4959380;29;20074;-77
2022/02/07 23:03:10;;;;;;;6.43;2.05;;;;;;;;;;4959403;29;20070;-77
2022/02/07 23:05:42;;;;;;;5.90;1.88;;;;;;;;;;4958187;29;20551;-77
2022/02/07 23:08:16;;;;;;;9.38;2.45;;;;;;;;;;4958398;29;20082;-77
2022/02/07 23:14:09;;;;;;;4.93;1.73;;;;;;;;;;4862551;27;8257280;-77
2022/02/07 23:16:46;;;;;;;7.00;2.20;;;;;;;;;;5155119;27;20045;-77
2022/02/07 23:19:21;;;;;;;5.22;2.33;;;;;;;;;;5155039;27;20122;-78
2022/02/07 23:21:57;;;;;;;4.18;1.45;;;;;;;;;;5155321;27;20227;-78
2022/02/07 23:35:39;;;;;;;6.53;1.92;;;;;;;;;;5154112;27;20060;-78
2022/02/07 23:38:11;;;;;;;7.38;2.90;;;;;;;;;;5154153;27;20123;-77
2022/02/07 23:43:23;;;;;;;13.68;2.47;;;;;;;;;;5152900;27;20487;-77
2022/02/07 23:45:56;;;;;;;5.90;1.92;;;;;;;;;;5154272;27;20039;-77
2022/02/07 23:48:27;;;;;;;6.95;2.30;;;;;;;;;;5134481;27;20043;-77
2022/02/07 23:51:11;;;;;;;4.88;1.98;;;;;;;;;;5133245;28;20039;-77
2022/02/07 23:53:46;;;;;;;7.68;2.70;;;;;;;;;;5133862;28;20206;-77
2022/02/07 23:56:22;;;;;;;3.72;1.40;;;;;;;;;;5133024;28;20035;-77
2022/02/07 23:58:52;;;;;;;7.05;2.03;;;;;;;;;;5133829;28;20043;-77
